Time;durP1;ratioP1;P1;durP2;ratioP2;P2;SDS_P1;SDS_P2;PMS_P1;PMS_P2;Temp;Humidity;BMP_temperature;BMP_pressure;BME280_temperature;BME280_humidity;BME280_pressure;Samples;Min_cycle;Max_cycle;Signal;HPM_P1;HPM_P2
2021/12/05 00:19:08;;;;;;;1.13;1.13;;;1.20;99.90;;;;;;5244899;28;20023;-75
2021/12/05 00:24:08;;;;;;;1.05;1.05;;;1.10;99.90;;;;;;5272552;28;20027;-76
2021/12/05 00:26:55;;;;;;;0.90;0.90;;;1.20;99.90;;;;;;5283517;28;20071;-75
2021/12/05 00:32:15;;;;;;;0.50;0.50;;;1.20;99.90;;;;;;5243462;28;20031;-74
2021/12/05 00:35:15;;;;;;;0.50;0.50;;;1.10;99.90;;;;;;5226653;28;20040;-74
2021/12/05 01:00:24;;;;;;;0.60;0.60;;;0.90;99.90;;;;;;5262320;28;20278;-75
2021/12/05 01:16:39;;;;;;;;;;;0.90;99.90;;;;;;5255345;28;20229;-73
2021/12/05 01:19:16;;;;;;;0.73;0.73;;;0.90;99.90;;;;;;5263368;28;19907;-72
2021/12/05 01:21:59;;;;;;;0.60;0.60;;;0.90;99.90;;;;;;5269114;28;20162;-73
2021/12/05 01:35:45;;;;;;;0.65;0.65;;;0.90;99.90;;;;;;5281463;28;20339;-73
2021/12/05 01:38:06;;;;;;;0.40;0.40;;;1.00;99.90;;;;;;5233347;28;20326;-73
2021/12/05 01:47:06;;;;;;;;;;;1.10;99.90;;;;;;5277382;28;20032;-73
2021/12/05 01:50:26;;;;;;;0.73;0.73;;;1.20;99.90;;;;;;5263005;28;19939;-73
2021/12/05 01:55:42;;;;;;;0.85;0.85;;;1.20;99.90;;;;;;5261645;28;20028;-74
2021/12/05 01:58:34;;;;;;;0.65;0.65;;;1.20;99.90;;;;;;5262777;28;20453;-74
2021/12/05 02:02:20;;;;;;;0.93;0.93;;;1.20;99.90;;;;;;5244616;28;20310;-75
2021/12/05 02:29:47;;;;;;;0.52;0.52;;;1.40;99.90;;;;;;5244313;28;20042;-74
2021/12/05 02:45:45;;;;;;;0.63;0.63;;;1.60;99.90;;;;;;5264781;28;20330;-73
2021/12/05 02:48:20;;;;;;;0.80;0.80;;;1.60;99.90;;;;;;5264544;28;20044;-73
2021/12/05 02:50:53;;;;;;;0.50;0.50;;;1.60;99.90;;;;;;5264286;28;20330;-72
2021/12/05 02:53:39;;;;;;;0.70;0.70;;;1.60;99.90;;;;;;5244946;28;20097;-72
2021/12/05 02:56:11;;;;;;;0.65;0.65;;;1.60;99.90;;;;;;5263675;28;20262;-74
2021/12/05 02:58:57;;;;;;;1.13;1.13;;;1.60;99.90;;;;;;5264734;28;20291;-74
2021/12/05 03:01:42;;;;;;;0.82;0.82;;;1.70;99.90;;;;;;5244080;28;20353;-75
2021/12/05 03:04:15;;;;;;;0.77;0.77;;;1.80;99.90;;;;;;5244584;28;20036;-73
2021/12/05 03:06:53;;;;;;;0.98;0.98;;;1.80;99.90;;;;;;5244208;28;20342;-73
2021/12/05 03:09:30;;;;;;;1.75;1.65;;;1.80;99.90;;;;;;5245716;28;20097;-74
2021/12/05 03:12:03;;;;;;;1.77;1.67;;;1.90;99.90;;;;;;5241838;28;20046;-73
2021/12/05 03:14:34;;;;;;;1.27;1.25;;;1.80;99.90;;;;;;5263778;28;20199;-73
2021/12/05 03:17:08;;;;;;;0.70;0.70;;;1.90;99.90;;;;;;5264681;28;20073;-73
2021/12/05 03:19:43;;;;;;;0.93;0.93;;;1.90;99.90;;;;;;5263664;28;20103;-73
2021/12/05 03:22:14;;;;;;;0.80;0.80;;;1.90;99.90;;;;;;5280001;28;20035;-74
2021/12/05 03:24:51;;;;;;;0.50;0.50;;;1.90;99.90;;;;;;5285835;28;20026;-72
2021/12/05 03:27:27;;;;;;;0.65;0.65;;;2.00;99.90;;;;;;5286383;28;20043;-73
2021/12/05 03:30:00;;;;;;;1.67;1.60;;;1.90;99.90;;;;;;5283147;28;20027;-73
2021/12/05 03:32:34;;;;;;;1.73;1.65;;;2.00;99.90;;;;;;5285836;28;20068;-73
2021/12/05 03:35:08;;;;;;;0.80;0.80;;;2.00;99.90;;;;;;5284366;28;20257;-73
2021/12/05 03:37:47;;;;;;;1.20;1.20;;;1.90;99.90;;;;;;5284463;28;20063;-74
2021/12/05 03:40:25;;;;;;;0.60;0.60;;;1.90;99.90;;;;;;5264845;28;20063;-74
2021/12/05 03:43:01;;;;;;;2.25;2.15;;;1.80;99.90;;;;;;5265016;27;20095;-75
2021/12/05 03:45:41;;;;;;;0.93;0.93;;;1.80;99.90;;;;;;5302208;27;20030;-73
2021/12/05 03:48:16;;;;;;;0.90;0.90;;;1.90;99.90;;;;;;5285926;28;20091;-74
2021/12/05 03:50:48;;;;;;;2.60;2.05;;;1.90;99.90;;;;;;5265112;28;20020;-73
2021/12/05 03:53:25;;;;;;;0.60;0.60;;;1.90;99.90;;;;;;5263928;28;20051;-74
2021/12/05 03:55:57;;;;;;;1.70;1.27;;;1.90;99.90;;;;;;5283892;28;20096;-73
2021/12/05 03:58:37;;;;;;;2.10;2.00;;;1.80;99.90;;;;;;5284564;28;20031;-73
2021/12/05 04:01:12;;;;;;;1.70;1.60;;;1.90;99.90;;;;;;5281406;28;20130;-73
2021/12/05 04:03:47;;;;;;;1.17;1.17;;;1.90;99.90;;;;;;5265786;28;20036;-73
2021/12/05 04:06:21;;;;;;;2.78;2.58;;;1.90;99.90;;;;;;5263185;28;20070;-73
2021/12/05 04:08:57;;;;;;;2.42;2.30;;;1.90;99.90;;;;;;5269266;28;20069;-74
2021/12/05 04:11:42;;;;;;;0.40;0.40;;;1.90;99.90;;;;;;5286238;27;20310;-73
2021/12/05 04:14:19;;;;;;;1.35;1.33;;;2.00;99.90;;;;;;5304799;27;20039;-74
2021/12/05 04:16:54;;;;;;;2.90;2.70;;;1.80;99.90;;;;;;5303231;27;20031;-74
2021/12/05 04:19:28;;;;;;;0.50;0.50;;;1.80;99.90;;;;;;5267369;27;20494;-74
2021/12/05 04:22:00;;;;;;;0.60;0.60;;;1.80;99.90;;;;;;5265418;28;20195;-73
2021/12/05 04:24:32;;;;;;;1.00;1.00;;;1.90;99.90;;;;;;5282723;28;20381;-73
2021/12/05 04:27:04;;;;;;;1.40;1.40;;;1.90;99.90;;;;;;5265524;28;20100;-73
2021/12/05 04:29:37;;;;;;;2.05;1.95;;;1.90;99.90;;;;;;5264571;28;20268;-73
2021/12/05 04:32:14;;;;;;;1.77;1.67;;;2.10;99.90;;;;;;5266429;28;20060;-74
2021/12/05 04:34:45;;;;;;;0.50;0.50;;;2.00;99.90;;;;;;5266585;28;20031;-75
2021/12/05 04:37:16;;;;;;;0.70;0.70;;;2.00;99.90;;;;;;5273039;28;20040;-75
2021/12/05 04:39:52;;;;;;;0.43;0.43;;;2.10;99.90;;;;;;5273379;28;20040;-74
2021/12/05 04:42:26;;;;;;;0.70;0.70;;;2.10;99.90;;;;;;5240788;28;20059;-74
2021/12/05 04:44:57;;;;;;;0.60;0.60;;;2.10;99.90;;;;;;5253361;28;20032;-73
2021/12/05 04:47:29;;;;;;;1.23;1.23;;;2.10;99.90;;;;;;5246623;28;20116;-73
2021/12/05 04:50:00;;;;;;;1.00;1.00;;;2.10;99.90;;;;;;5264798;28;20560;-73
2021/12/05 04:52:32;;;;;;;1.60;1.55;;;2.00;99.90;;;;;;5264485;28;20032;-74
2021/12/05 04:55:06;;;;;;;0.70;0.70;;;1.90;99.90;;;;;;5264519;28;20036;-73
2021/12/05 04:57:39;;;;;;;0.65;0.65;;;1.90;99.90;;;;;;5261949;28;20515;-74
2021/12/05 05:00:17;;;;;;;0.60;0.60;;;1.90;99.90;;;;;;5263726;28;20039;-74
2021/12/05 05:02:51;;;;;;;0.93;0.93;;;1.80;99.90;;;;;;5261086;28;20050;-74
2021/12/05 05:05:27;;;;;;;2.30;2.20;;;1.80;99.90;;;;;;5260510;28;20378;-73
2021/12/05 05:07:59;;;;;;;1.27;1.27;;;1.90;99.90;;;;;;5260488;28;20666;-74
2021/12/05 05:10:32;;;;;;;0.68;0.68;;;1.80;99.90;;;;;;5263111;28;20034;-73
2021/12/05 05:13:08;;;;;;;1.08;1.08;;;1.70;99.90;;;;;;5244965;28;20345;-75
2021/12/05 05:15:39;;;;;;;0.50;0.50;;;1.70;99.90;;;;;;5262999;28;20330;-74
2021/12/05 05:18:13;;;;;;;1.67;1.58;;;1.60;99.90;;;;;;5261604;28;20409;-74
2021/12/05 05:20:57;;;;;;;1.35;1.35;;;1.60;99.90;;;;;;5261740;28;20036;-73
2021/12/05 05:23:56;;;;;;;0.70;0.70;;;1.60;99.90;;;;;;5261546;28;20571;-74
2021/12/05 05:46:08;;;;;;;1.02;1.02;;;1.40;99.90;;;;;;5267276;28;20043;-75
2021/12/05 05:51:44;;;;;;;2.08;1.98;;;1.70;99.90;;;;;;5223592;28;19950;-74
2021/12/05 05:54:16;;;;;;;1.38;1.35;;;1.70;99.90;;;;;;5207938;28;20464;-74
2021/12/05 05:56:56;;;;;;;0.47;0.47;;;1.80;99.90;;;;;;5206985;28;20037;-74
2021/12/05 05:59:38;;;;;;;0.88;0.88;;;1.80;99.90;;;;;;5223587;28;20237;-74
2021/12/05 06:04:42;;;;;;;0.70;0.70;;;1.60;99.90;;;;;;5200742;28;20357;-74
2021/12/05 06:07:16;;;;;;;0.70;0.70;;;1.60;99.90;;;;;;5218120;28;20551;-74
2021/12/05 06:09:49;;;;;;;0.40;0.40;;;1.50;99.90;;;;;;5206199;28;20525;-74
2021/12/05 06:12:20;;;;;;;1.15;1.15;;;1.50;99.90;;;;;;5205542;28;20095;-76
2021/12/05 06:14:54;;;;;;;0.75;0.75;;;1.40;99.90;;;;;;5221111;28;20040;-74
2021/12/05 06:17:25;;;;;;;0.73;0.73;;;1.50;99.90;;;;;;5225992;28;20473;-75
2021/12/05 06:19:57;;;;;;;0.50;0.50;;;1.70;99.90;;;;;;5214343;28;20047;-74
2021/12/05 06:22:30;;;;;;;0.50;0.50;;;2.40;99.90;;;;;;5216886;28;20099;-74
2021/12/05 06:25:07;;;;;;;0.52;0.52;;;2.80;99.90;;;;;;5208644;28;20029;-75
2021/12/05 06:27:38;;;;;;;0.47;0.47;;;2.90;99.90;;;;;;5246565;28;20286;-74
2021/12/05 06:30:41;;;;;;;0.30;0.30;;;3.00;99.90;;;;;;5253556;28;20199;-75
2021/12/05 06:47:26;;;;;;;0.63;0.63;;;3.30;99.90;;;;;;5208397;28;20049;-76
2021/12/05 06:49:57;;;;;;;0.47;0.47;;;3.40;99.90;;;;;;5221424;28;20041;-74
2021/12/05 06:52:28;;;;;;;0.52;0.52;;;3.50;99.90;;;;;;5221458;28;20352;-75
2021/12/05 06:54:59;;;;;;;0.57;0.57;;;3.50;99.90;;;;;;5204156;28;20055;-74
2021/12/05 06:57:31;;;;;;;0.70;0.70;;;3.40;99.90;;;;;;5199069;28;20640;-74
2021/12/05 07:00:11;;;;;;;0.30;0.30;;;3.50;99.90;;;;;;5170506;28;20048;-74
2021/12/05 07:02:51;;;;;;;0.57;0.57;;;3.60;99.90;;;;;;5202757;28;20047;-76
2021/12/05 07:07:59;;;;;;;0.52;0.52;;;3.60;99.90;;;;;;5200673;28;20041;-76
2021/12/05 07:10:40;;;;;;;0.40;0.40;;;3.70;99.90;;;;;;5186866;28;20039;-74
2021/12/05 07:13:52;;;;;;;0.40;0.40;;;3.70;99.90;;;;;;5202786;28;20120;-75
2021/12/05 07:16:25;;;;;;;0.60;0.60;;;3.80;99.90;;;;;;5219615;28;20051;-74
2021/12/05 07:19:28;;;;;;;0.75;0.75;;;3.80;99.90;;;;;;5205411;28;20109;-74
2021/12/05 07:22:03;;;;;;;0.75;0.75;;;3.90;99.90;;;;;;5286759;27;20075;-74
2021/12/05 07:24:53;;;;;;;0.40;0.40;;;4.00;99.90;;;;;;5263938;28;20085;-74
2021/12/05 07:41:53;;;;;;;0.60;0.60;;;4.30;99.90;;;;;;5285764;27;20027;-74
2021/12/05 07:44:32;;;;;;;1.00;1.00;;;4.30;99.90;;;;;;5304282;27;20096;-74
2021/12/05 07:47:03;;;;;;;0.60;0.60;;;4.30;99.90;;;;;;5288393;27;20030;-75
2021/12/05 07:49:37;;;;;;;0.80;0.80;;;4.30;99.90;;;;;;5306368;27;20280;-73
2021/12/05 07:52:07;;;;;;;0.50;0.50;;;4.30;99.90;;;;;;5288349;27;20082;-74
2021/12/05 07:54:44;;;;;;;0.45;0.45;;;4.30;99.90;;;;;;5288073;27;20039;-74
2021/12/05 08:16:53;;;;;;;0.68;0.68;;;4.30;99.90;;;;;;5281751;27;20098;-75
2021/12/05 08:19:24;;;;;;;0.55;0.55;;;4.30;99.90;;;;;;5299372;27;20288;-73
2021/12/05 08:22:03;;;;;;;0.70;0.70;;;4.30;99.90;;;;;;5277633;27;20035;-74
2021/12/05 08:24:36;;;;;;;0.60;0.60;;;4.20;99.90;;;;;;5268133;27;20425;-74
2021/12/05 08:27:14;;;;;;;0.50;0.50;;;4.10;99.90;;;;;;5281750;27;20401;-73
2021/12/05 08:29:53;;;;;;;0.50;0.50;;;4.10;99.90;;;;;;5301869;27;20343;-73
2021/12/05 09:23:41;;;;;;;0.63;0.63;;;4.10;99.90;;;;;;5279449;28;20035;-76
2021/12/05 10:35:13;;;;;;;0.60;0.60;;;3.50;99.90;;;;;;5243541;28;20550;-73
2021/12/05 10:37:25;;;;;;;0.30;0.30;;;3.50;99.90;;;;;;5246087;28;20078;-73
2021/12/05 10:40:12;;;;;;;0.75;0.75;;;3.50;99.90;;;;;;5278189;27;20043;-75
2021/12/05 10:42:53;;;;;;;0.50;0.50;;;3.40;99.90;;;;;;5269181;27;20106;-73
2021/12/05 10:45:38;;;;;;;1.00;0.98;;;3.40;99.90;;;;;;5306507;27;20048;-72
2021/12/05 10:48:29;;;;;;;0.43;0.43;;;3.40;99.90;;;;;;5286758;27;20089;-74
2021/12/05 10:51:05;;;;;;;0.60;0.60;;;3.40;99.90;;;;;;5295229;27;20074;-75
2021/12/05 10:53:56;;;;;;;0.75;0.75;;;3.40;99.90;;;;;;5302222;27;20043;-75
2021/12/05 10:56:40;;;;;;;0.52;0.52;;;3.40;99.90;;;;;;5305049;27;20248;-73
2021/12/05 10:59:22;;;;;;;0.60;0.60;;;3.50;99.90;;;;;;5269576;27;20371;-74
2021/12/05 11:02:15;;;;;;;0.30;0.30;;;3.50;99.90;;;;;;5269723;27;20082;-75
2021/12/05 11:04:50;;;;;;;0.40;0.40;;;3.60;99.90;;;;;;5305549;27;20031;-73
2021/12/05 11:07:23;;;;;;;0.30;0.30;;;3.60;99.90;;;;;;5269082;27;20080;-74
2021/12/05 11:09:57;;;;;;;0.30;0.30;;;3.60;99.90;;;;;;5305433;27;20047;-73
2021/12/05 11:12:38;;;;;;;0.50;0.50;;;3.70;99.90;;;;;;5288881;27;20175;-73
2021/12/05 11:15:15;;;;;;;0.43;0.43;;;3.80;99.90;;;;;;5288504;27;20045;-73
2021/12/05 11:17:50;;;;;;;0.50;0.50;;;3.80;99.90;;;;;;5291047;27;20034;-73
2021/12/05 11:20:29;;;;;;;;;;;3.70;99.90;;;;;;5283989;27;20043;-73
2021/12/05 11:23:03;;;;;;;0.43;0.43;;;3.70;99.90;;;;;;5283558;27;20486;-74
2021/12/05 11:25:40;;;;;;;0.67;0.67;;;3.80;99.90;;;;;;5287044;27;20031;-75
2021/12/05 11:28:24;;;;;;;0.70;0.70;;;3.80;99.90;;;;;;5304422;27;20359;-74
2021/12/05 11:30:58;;;;;;;0.57;0.57;;;3.70;99.90;;;;;;5287863;27;20341;-75
2021/12/05 11:33:29;;;;;;;0.55;0.55;;;3.80;99.90;;;;;;5288628;27;20030;-75
2021/12/05 11:36:09;;;;;;;0.40;0.40;;;3.80;99.90;;;;;;5305013;27;20359;-75
2021/12/05 11:38:40;;;;;;;0.52;0.52;;;3.80;99.90;;;;;;5303334;27;20054;-73
2021/12/05 11:41:20;;;;;;;0.70;0.70;;;3.90;99.90;;;;;;5262738;28;20214;-75
2021/12/05 11:44:00;;;;;;;0.60;0.60;;;3.90;99.90;;;;;;5261615;28;20052;-72
2021/12/05 11:46:44;;;;;;;0.65;0.65;;;4.00;99.90;;;;;;5262447;28;20028;-75
2021/12/05 11:49:26;;;;;;;0.30;0.30;;;4.10;99.90;;;;;;5243544;28;20252;-73
2021/12/05 11:51:58;;;;;;;0.80;0.80;;;4.20;99.90;;;;;;5258209;28;20040;-74
2021/12/05 11:54:30;;;;;;;0.60;0.60;;;4.20;99.90;;;;;;5260687;28;20043;-73
2021/12/05 11:57:17;;;;;;;0.50;0.50;;;4.30;99.90;;;;;;5260839;28;20157;-73
2021/12/05 12:00:04;;;;;;;0.73;0.73;;;4.40;99.90;;;;;;5253688;28;20039;-74
2021/12/05 12:02:44;;;;;;;0.60;0.60;;;4.30;99.90;;;;;;5283139;28;20416;-74
2021/12/05 12:05:27;;;;;;;0.60;0.60;;;4.30;99.90;;;;;;5273141;28;20031;-75
2021/12/05 12:08:05;;;;;;;0.40;0.40;;;4.20;99.90;;;;;;5260643;28;20035;-75
2021/12/05 12:10:50;;;;;;;0.40;0.40;;;4.20;99.90;;;;;;5268585;28;20234;-74
2021/12/05 12:13:34;;;;;;;0.68;0.68;;;4.20;99.90;;;;;;5262060;28;20099;-74
2021/12/05 12:16:13;;;;;;;0.68;0.68;;;4.20;99.90;;;;;;5258774;28;20103;-74
2021/12/05 12:18:49;;;;;;;0.50;0.50;;;4.20;99.90;;;;;;5252657;28;20036;-73
2021/12/05 12:21:41;;;;;;;0.50;0.50;;;4.20;99.90;;;;;;5260605;28;20031;-74
2021/12/05 12:24:19;;;;;;;0.47;0.47;;;4.10;99.90;;;;;;5244873;28;20031;-74
2021/12/05 12:26:55;;;;;;;0.77;0.77;;;4.10;99.90;;;;;;5261287;28;20048;-73
2021/12/05 12:29:31;;;;;;;0.70;0.70;;;4.10;99.90;;;;;;5259761;28;20222;-74
2021/12/05 12:32:12;;;;;;;0.35;0.35;;;4.20;99.90;;;;;;5259970;28;20067;-74
2021/12/05 12:34:47;;;;;;;0.60;0.60;;;4.20;99.90;;;;;;5260502;28;20055;-74
2021/12/05 12:37:23;;;;;;;0.50;0.50;;;4.20;99.90;;;;;;5260222;28;20063;-74
2021/12/05 12:39:54;;;;;;;0.60;0.60;;;4.10;99.90;;;;;;5262003;28;20028;-74
2021/12/05 12:42:33;;;;;;;0.47;0.47;;;4.20;99.90;;;;;;5261008;28;20085;-74
2021/12/05 12:45:21;;;;;;;1.30;1.30;;;4.20;99.90;;;;;;5263645;28;20036;-73
2021/12/05 12:47:58;;;;;;;0.50;0.50;;;4.20;99.90;;;;;;5253313;28;20356;-74
2021/12/05 12:50:51;;;;;;;0.60;0.60;;;4.20;99.90;;;;;;5238563;28;20049;-74
2021/12/05 12:53:37;;;;;;;0.50;0.50;;;4.20;99.90;;;;;;5257492;28;20070;-74
2021/12/05 12:56:19;;;;;;;0.90;0.90;;;4.20;99.90;;;;;;5256023;28;20032;-74
2021/12/05 12:58:59;;;;;;;0.60;0.60;;;4.10;99.90;;;;;;5240996;28;20063;-74
2021/12/05 13:04:33;;;;;;;1.33;1.30;;;4.00;99.90;;;;;;5254238;28;20032;-74
2021/12/05 13:10:16;;;;;;;0.80;0.80;;;4.00;99.90;;;;;;5261916;28;20036;-75
2021/12/05 13:12:56;;;;;;;0.85;0.85;;;4.00;99.90;;;;;;5249898;28;20061;-74
2021/12/05 13:15:45;;;;;;;1.10;1.10;;;3.90;99.90;;;;;;5236937;28;20028;-76
2021/12/05 13:18:33;;;;;;;0.52;0.52;;;3.90;99.90;;;;;;5259641;28;20047;-74
2021/12/05 13:21:16;;;;;;;0.50;0.50;;;3.80;99.90;;;;;;5260091;28;20082;-76
2021/12/05 13:23:51;;;;;;;0.60;0.60;;;3.80;99.90;;;;;;5253341;28;20251;-74
2021/12/05 13:26:33;;;;;;;2.00;1.80;;;3.80;99.90;;;;;;5259389;28;20253;-74
2021/12/05 13:29:21;;;;;;;0.52;0.52;;;3.80;99.90;;;;;;5261464;28;20199;-77
2021/12/05 13:32:24;;;;;;;0.50;0.50;;;3.80;99.90;;;;;;5242576;28;20263;-75
2021/12/05 13:35:00;;;;;;;0.50;0.50;;;3.80;99.90;;;;;;5260070;28;20047;-74
2021/12/05 13:37:47;;;;;;;0.30;0.30;;;3.70;99.90;;;;;;5258767;28;20054;-74
2021/12/05 13:40:27;;;;;;;0.40;0.40;;;3.70;99.90;;;;;;5250301;28;20235;-74
2021/12/05 13:43:08;;;;;;;0.50;0.50;;;3.80;99.90;;;;;;5250776;28;20112;-75
2021/12/05 13:45:43;;;;;;;0.45;0.45;;;3.80;99.90;;;;;;5254587;28;20040;-74
2021/12/05 13:48:25;;;;;;;0.50;0.50;;;3.80;99.90;;;;;;5258300;28;20052;-74
2021/12/05 13:51:05;;;;;;;1.40;1.40;;;3.80;99.90;;;;;;5246317;28;20021;-74
2021/12/05 13:54:00;;;;;;;0.60;0.60;;;3.80;99.90;;;;;;5237586;28;20041;-74
2021/12/05 13:56:33;;;;;;;0.60;0.60;;;3.80;99.90;;;;;;5259209;28;20202;-73
2021/12/05 13:59:08;;;;;;;0.73;0.73;;;3.70;99.90;;;;;;5240425;28;20044;-74
2021/12/05 14:01:49;;;;;;;1.13;1.13;;;3.70;99.90;;;;;;5252137;28;20815;-74
2021/12/05 14:04:25;;;;;;;0.50;0.50;;;3.70;99.90;;;;;;5265819;28;20261;-74
2021/12/05 14:07:12;;;;;;;0.47;0.47;;;3.70;99.90;;;;;;5242028;28;20079;-74
2021/12/05 14:09:51;;;;;;;0.60;0.60;;;3.70;99.90;;;;;;5242139;28;20413;-75
2021/12/05 14:12:38;;;;;;;0.70;0.70;;;3.70;99.90;;;;;;5258996;28;20040;-76
2021/12/05 14:15:13;;;;;;;1.00;1.00;;;3.70;99.90;;;;;;5256083;28;20366;-74
2021/12/05 14:17:48;;;;;;;0.40;0.40;;;3.70;99.90;;;;;;5264367;28;20032;-75
2021/12/05 14:20:25;;;;;;;0.40;0.40;;;3.70;99.90;;;;;;5263419;28;20036;-74
2021/12/05 14:23:04;;;;;;;0.60;0.60;;;3.70;99.90;;;;;;5256051;28;20091;-74
2021/12/05 14:25:36;;;;;;;0.45;0.45;;;3.70;99.90;;;;;;5247967;28;20493;-75
2021/12/05 14:28:11;;;;;;;0.40;0.40;;;3.80;99.90;;;;;;5258683;28;20036;-75
2021/12/05 14:30:45;;;;;;;0.60;0.60;;;3.80;99.90;;;;;;5256089;28;20037;-74
2021/12/05 14:33:18;;;;;;;0.70;0.70;;;3.70;99.90;;;;;;5255035;28;20044;-74
2021/12/05 14:35:56;;;;;;;0.80;0.80;;;3.70;99.90;;;;;;5250044;28;20032;-76
2021/12/05 14:38:29;;;;;;;0.98;0.98;;;3.70;99.90;;;;;;5250046;28;20036;-74
2021/12/05 14:41:00;;;;;;;1.33;1.23;;;3.80;99.90;;;;;;5295411;27;20352;-75
2021/12/05 14:43:31;;;;;;;0.38;0.38;;;3.80;99.90;;;;;;5264899;27;20035;-74
2021/12/05 14:46:02;;;;;;;0.40;0.40;;;3.80;99.90;;;;;;5280517;27;20172;-75
2021/12/05 14:48:36;;;;;;;0.50;0.50;;;3.70;99.90;;;;;;5278365;27;20050;-74
2021/12/05 14:51:07;;;;;;;0.40;0.40;;;3.70;99.90;;;;;;5277811;27;20303;-74
2021/12/05 14:53:43;;;;;;;0.50;0.50;;;3.70;99.90;;;;;;5305167;27;20059;-74
2021/12/05 14:56:15;;;;;;;0.70;0.70;;;3.70;99.90;;;;;;5278355;27;20035;-76
2021/12/05 14:58:49;;;;;;;0.55;0.55;;;3.80;99.90;;;;;;5283622;27;20217;-74
2021/12/05 15:01:30;;;;;;;0.75;0.75;;;3.80;99.90;;;;;;5297841;27;20027;-76
2021/12/05 15:04:06;;;;;;;0.47;0.47;;;3.70;99.90;;;;;;5313127;27;20050;-74
2021/12/05 15:06:45;;;;;;;0.60;0.60;;;3.70;99.90;;;;;;5272090;27;20062;-75
2021/12/05 15:09:32;;;;;;;0.80;0.80;;;3.70;99.90;;;;;;5286882;27;20034;-74
2021/12/05 15:12:18;;;;;;;0.30;0.30;;;3.70;99.90;;;;;;5287213;27;20027;-74
2021/12/05 15:14:53;;;;;;;0.30;0.30;;;3.70;99.90;;;;;;5282069;27;20049;-73
2021/12/05 15:17:31;;;;;;;0.85;0.85;;;3.70;99.90;;;;;;5288643;27;20035;-74
2021/12/05 15:20:10;;;;;;;1.15;1.15;;;3.70;99.90;;;;;;5268703;27;20106;-74
2021/12/05 15:22:47;;;;;;;0.50;0.50;;;3.70;99.90;;;;;;5311194;27;20035;-74
2021/12/05 15:25:27;;;;;;;0.50;0.50;;;3.70;99.90;;;;;;5291363;27;20553;-74
2021/12/05 15:28:03;;;;;;;0.70;0.70;;;3.60;99.90;;;;;;5285399;27;20033;-76
2021/12/05 15:30:45;;;;;;;0.50;0.50;;;3.60;99.90;;;;;;5275183;27;20034;-74
2021/12/05 15:33:25;;;;;;;0.73;0.73;;;3.60;99.90;;;;;;5302292;27;20068;-74
2021/12/05 15:35:59;;;;;;;0.70;0.70;;;3.60;99.90;;;;;;5299806;27;20026;-75
2021/12/05 15:38:31;;;;;;;0.57;0.57;;;3.60;99.90;;;;;;5296694;27;20419;-74
2021/12/05 15:41:15;;;;;;;0.70;0.70;;;3.60;99.90;;;;;;5246572;28;20052;-76
2021/12/05 15:43:51;;;;;;;0.60;0.60;;;3.60;99.90;;;;;;5248674;28;20040;-76
2021/12/05 15:46:30;;;;;;;0.40;0.40;;;3.60;99.90;;;;;;5271482;28;20028;-77
2021/12/05 15:49:06;;;;;;;0.40;0.40;;;3.60;99.90;;;;;;5272849;28;20035;-76
2021/12/05 15:51:42;;;;;;;0.65;0.65;;;3.60;99.90;;;;;;5249235;28;20052;-74
2021/12/05 15:54:13;;;;;;;0.47;0.47;;;3.60;99.90;;;;;;5256950;28;20040;-76
2021/12/05 15:56:51;;;;;;;0.63;0.63;;;3.60;99.90;;;;;;5235002;28;20285;-75
2021/12/05 15:59:24;;;;;;;0.50;0.50;;;3.60;99.90;;;;;;5255721;28;20040;-75
2021/12/05 16:01:58;;;;;;;0.67;0.67;;;3.60;99.90;;;;;;5266438;28;20061;-76
2021/12/05 16:04:31;;;;;;;0.63;0.63;;;3.60;99.90;;;;;;5272262;28;20093;-75
2021/12/05 16:07:03;;;;;;;0.50;0.50;;;3.60;99.90;;;;;;5255107;28;20088;-76
2021/12/05 16:09:35;;;;;;;0.73;0.73;;;3.50;99.90;;;;;;5252658;28;20036;-76
2021/12/05 16:12:22;;;;;;;0.82;0.82;;;3.60;99.90;;;;;;5263753;28;20148;-75
2021/12/05 16:14:56;;;;;;;0.77;0.77;;;3.60;99.90;;;;;;5271967;28;20287;-75
2021/12/05 16:17:33;;;;;;;0.52;0.52;;;3.60;99.90;;;;;;5266757;28;20324;-76
2021/12/05 16:20:21;;;;;;;0.40;0.40;;;3.60;99.90;;;;;;5261231;28;20032;-78
2021/12/05 16:23:06;;;;;;;0.55;0.55;;;3.60;99.90;;;;;;5264903;28;20060;-76
2021/12/05 16:25:57;;;;;;;;;;;3.60;99.90;;;;;;5259775;28;20028;-75
2021/12/05 16:28:53;;;;;;;0.60;0.60;;;3.50;99.90;;;;;;5263808;28;19908;-75
2021/12/05 16:31:30;;;;;;;0.57;0.57;;;3.60;99.90;;;;;;5267999;28;20526;-75
2021/12/05 16:34:14;;;;;;;0.60;0.60;;;3.60;99.90;;;;;;5266578;28;20047;-75
2021/12/05 16:36:57;;;;;;;0.63;0.63;;;3.60;99.90;;;;;;5270740;28;20331;-77
2021/12/05 16:39:34;;;;;;;0.40;0.40;;;3.60;99.90;;;;;;5267365;27;20094;-77
2021/12/05 16:42:26;;;;;;;0.77;0.77;;;3.60;99.90;;;;;;5287438;27;20051;-76
2021/12/05 16:44:59;;;;;;;0.45;0.45;;;3.60;99.90;;;;;;5279159;27;20043;-75
2021/12/05 16:47:35;;;;;;;0.50;0.50;;;3.60;99.90;;;;;;5292881;27;20031;-78
2021/12/05 16:50:13;;;;;;;0.60;0.60;;;3.60;99.90;;;;;;5271332;27;20393;-78
2021/12/05 16:52:54;;;;;;;0.80;0.80;;;3.60;99.90;;;;;;5280717;28;20035;-78
2021/12/05 16:55:29;;;;;;;0.50;0.50;;;3.60;99.90;;;;;;5290627;27;20083;-76
2021/12/05 16:58:16;;;;;;;0.50;0.50;;;3.50;99.90;;;;;;5308695;27;20329;-76
2021/12/05 17:00:52;;;;;;;0.50;0.50;;;3.40;99.90;;;;;;5295790;27;20062;-74
2021/12/05 17:03:29;;;;;;;0.65;0.65;;;3.40;99.90;;;;;;5296899;27;20104;-76
2021/12/05 17:06:10;;;;;;;0.60;0.60;;;3.30;99.90;;;;;;5304359;27;20027;-75
2021/12/05 17:08:45;;;;;;;0.60;0.60;;;3.30;99.90;;;;;;5285770;28;20098;-74
2021/12/05 17:11:22;;;;;;;0.82;0.82;;;3.30;99.90;;;;;;5267675;28;20047;-77
2021/12/05 17:13:57;;;;;;;0.40;0.40;;;3.30;99.90;;;;;;5296684;27;20039;-76
2021/12/05 17:16:29;;;;;;;0.47;0.47;;;3.20;99.90;;;;;;5298967;28;20054;-74
2021/12/05 17:19:09;;;;;;;0.50;0.50;;;3.20;99.90;;;;;;5278232;28;20272;-76
2021/12/05 17:21:52;;;;;;;0.50;0.50;;;3.20;99.90;;;;;;5271207;27;20074;-76
2021/12/05 17:24:35;;;;;;;0.50;0.50;;;3.20;99.90;;;;;;5294265;27;20228;-76
2021/12/05 17:27:09;;;;;;;0.52;0.52;;;3.10;99.90;;;;;;5284467;28;20063;-75
2021/12/05 17:29:44;;;;;;;0.88;0.88;;;3.20;99.90;;;;;;5280819;27;20202;-75
2021/12/05 17:32:25;;;;;;;0.70;0.70;;;3.10;99.90;;;;;;5291041;27;20043;-75
2021/12/05 17:34:59;;;;;;;0.60;0.60;;;3.10;99.90;;;;;;5288060;27;20035;-74
2021/12/05 17:37:34;;;;;;;0.57;0.57;;;3.10;99.90;;;;;;5307234;27;20031;-76
2021/12/05 17:40:13;;;;;;;0.43;0.43;;;3.10;99.90;;;;;;5267983;28;20107;-74
2021/12/05 17:42:44;;;;;;;0.60;0.60;;;3.10;99.90;;;;;;5253357;28;20111;-75
2021/12/05 17:45:18;;;;;;;0.55;0.55;;;3.00;99.90;;;;;;5274339;28;20036;-75
2021/12/05 17:47:49;;;;;;;0.50;0.50;;;3.00;99.90;;;;;;5260947;28;20034;-75
2021/12/05 17:50:23;;;;;;;0.50;0.50;;;3.00;99.90;;;;;;5253738;28;20044;-76
2021/12/05 17:52:57;;;;;;;0.70;0.70;;;3.00;99.90;;;;;;5261528;28;20236;-75
2021/12/05 17:55:32;;;;;;;0.88;0.85;;;3.00;99.90;;;;;;5276465;28;20209;-75
2021/12/05 17:58:18;;;;;;;0.40;0.40;;;2.90;99.90;;;;;;5263547;28;20036;-75
2021/12/05 18:02:41;;;;;;;0.75;0.75;;;2.90;99.90;;;;;;5273274;28;20737;-75
2021/12/05 18:03:47;;;;;;;0.30;0.30;;;2.90;99.90;;;;;;5248886;28;20099;-74
2021/12/05 18:06:19;;;;;;;0.50;0.50;;;2.90;99.90;;;;;;5268559;28;20035;-74
2021/12/05 18:08:51;;;;;;;0.77;0.77;;;2.90;99.90;;;;;;5275756;28;20040;-75
2021/12/05 18:11:27;;;;;;;0.45;0.45;;;2.90;99.90;;;;;;5246942;28;20043;-74
2021/12/05 18:14:00;;;;;;;0.60;0.60;;;2.90;99.90;;;;;;5272376;28;20043;-74
2021/12/05 18:16:32;;;;;;;0.50;0.50;;;2.80;99.90;;;;;;5278553;28;20134;-75
2021/12/05 18:19:11;;;;;;;0.65;0.65;;;2.80;99.90;;;;;;5273114;28;20035;-74
2021/12/05 18:21:46;;;;;;;1.27;1.27;;;2.80;99.90;;;;;;5268624;28;20036;-76
2021/12/05 18:24:22;;;;;;;0.65;0.65;;;2.80;99.90;;;;;;5268804;28;20036;-76
2021/12/05 18:26:56;;;;;;;0.80;0.80;;;2.80;99.90;;;;;;5261687;28;20040;-75
2021/12/05 18:29:27;;;;;;;0.60;0.60;;;2.80;99.90;;;;;;5260660;28;20238;-74
2021/12/05 18:32:00;;;;;;;1.10;1.10;;;2.80;99.90;;;;;;5266168;28;20113;-75
2021/12/05 18:34:34;;;;;;;0.60;0.60;;;2.80;99.90;;;;;;5261336;28;20035;-74
2021/12/05 18:37:06;;;;;;;0.52;0.52;;;2.80;99.90;;;;;;5275299;28;20226;-74
2021/12/05 18:39:44;;;;;;;0.60;0.60;;;2.80;99.90;;;;;;5278397;27;20360;-75
2021/12/05 18:42:18;;;;;;;0.60;0.60;;;2.80;99.90;;;;;;5288679;27;20272;-74
2021/12/05 18:44:56;;;;;;;0.47;0.47;;;2.80;99.90;;;;;;5299898;27;20062;-76
2021/12/05 18:47:31;;;;;;;0.55;0.55;;;2.80;99.90;;;;;;5287639;27;20039;-74
2021/12/05 18:50:04;;;;;;;;;;;2.80;99.90;;;;;;5288721;27;20061;-75
2021/12/05 18:52:36;;;;;;;0.55;0.55;;;2.80;99.90;;;;;;5307485;27;19915;-75
2021/12/05 18:55:15;;;;;;;0.70;0.70;;;2.80;99.90;;;;;;5320076;27;20027;-75
2021/12/05 18:57:52;;;;;;;0.60;0.60;;;2.80;99.90;;;;;;5308608;27;20042;-75
2021/12/05 19:00:38;;;;;;;0.45;0.45;;;2.80;99.90;;;;;;5285528;27;20429;-74
2021/12/05 19:06:09;;;;;;;0.77;0.77;;;2.90;99.90;;;;;;5321525;27;20270;-74
2021/12/05 19:09:07;;;;;;;0.50;0.50;;;2.80;99.90;;;;;;5314340;27;20062;-75
2021/12/05 19:11:45;;;;;;;1.10;1.10;;;2.80;99.90;;;;;;5310824;27;20099;-74
2021/12/05 19:14:31;;;;;;;0.93;0.93;;;2.90;99.90;;;;;;5286497;27;20090;-74
2021/12/05 19:17:27;;;;;;;0.63;0.63;;;2.90;99.90;;;;;;5277383;27;20031;-76